Time;durP1;ratioP1;P1;durP2;ratioP2;P2;SDS_P1;SDS_P2;PMS_P1;PMS_P2;Temp;Humidity;BMP_temperature;BMP_pressure;BME280_temperature;BME280_humidity;BME280_pressure;Samples;Min_cycle;Max_cycle;Signal;HPM_P1;HPM_P2
2021/12/13 00:02:33;;;;;;;90.05;33.92;;;10.90;99.90;;;;;;5055794;28;20036;-90
2021/12/13 00:05:03;;;;;;;80.85;31.00;;;10.90;99.90;;;;;;5036584;28;20087;-91
2021/12/13 00:07:37;;;;;;;84.85;32.65;;;10.90;99.90;;;;;;5075726;28;20039;-91
2021/12/13 00:10:13;;;;;;;83.68;32.83;;;10.90;99.90;;;;;;5075531;28;20044;-91
2021/12/13 00:12:43;;;;;;;86.97;32.08;;;10.90;99.90;;;;;;5058970;28;20100;-91
2021/12/13 00:15:18;;;;;;;75.00;32.65;;;10.90;99.90;;;;;;5058349;28;20040;-91
2021/12/13 00:17:47;;;;;;;84.93;35.10;;;10.80;99.90;;;;;;5058615;28;20097;-91
2021/12/13 00:20:16;;;;;;;81.18;33.90;;;10.90;99.90;;;;;;5058810;28;20489;-91
2021/12/13 00:22:51;;;;;;;83.15;33.90;;;10.80;99.90;;;;;;5058583;28;20085;-91
2021/12/13 00:25:20;;;;;;;83.35;34.33;;;10.90;99.90;;;;;;5058598;28;20044;-90
2021/12/13 00:27:58;;;;;;;83.80;33.40;;;10.90;99.90;;;;;;5058361;28;20086;-90
2021/12/13 00:30:51;;;;;;;82.50;32.28;;;10.90;99.90;;;;;;5075851;28;20048;-91
2021/12/13 00:33:46;;;;;;;66.72;26.73;;;10.90;99.90;;;;;;5058405;28;20093;-91
2021/12/13 00:36:35;;;;;;;72.93;30.15;;;10.90;99.90;;;;;;5075101;28;20461;-91
2021/12/13 00:39:13;;;;;;;64.25;28.83;;;10.90;99.90;;;;;;5075139;28;20077;-91
2021/12/13 00:41:42;;;;;;;67.07;29.33;;;10.90;99.90;;;;;;5075468;28;20054;-91
2021/12/13 00:44:19;;;;;;;65.78;28.90;;;10.90;99.90;;;;;;5075152;28;20083;-91
2021/12/13 00:46:47;;;;;;;65.95;28.42;;;10.90;99.90;;;;;;5074582;28;20543;-91
2021/12/13 00:49:20;;;;;;;65.03;28.08;;;10.90;99.90;;;;;;5074628;28;20047;-91
2021/12/13 00:51:51;;;;;;;61.75;27.23;;;10.90;99.90;;;;;;5058338;28;20051;-91
2021/12/13 00:54:22;;;;;;;54.45;25.98;;;10.90;99.90;;;;;;5074242;28;20532;-91
2021/12/13 00:57:03;;;;;;;64.15;27.38;;;10.90;99.90;;;;;;5074304;28;20055;-91
2021/12/13 00:59:32;;;;;;;65.45;29.67;;;10.90;99.90;;;;;;5058069;28;20119;-91
2021/12/13 01:02:06;;;;;;;56.08;24.55;;;10.90;99.90;;;;;;5092440;28;20112;-91
2021/12/13 01:04:51;;;;;;;59.42;25.38;;;10.90;99.90;;;;;;5064961;28;20502;-91
2021/12/13 01:07:47;;;;;;;54.72;26.70;;;10.90;99.90;;;;;;5054893;28;20051;-91
2021/12/13 01:10:55;;;;;;;54.97;25.58;;;10.90;99.90;;;;;;5056494;28;20072;-91
2021/12/13 01:13:35;;;;;;;54.53;26.13;;;10.90;99.90;;;;;;4984777;28;20607;-91
2021/12/13 01:16:23;;;;;;;59.97;26.17;;;10.90;99.90;;;;;;5033569;28;20048;-91
2021/12/13 01:19:47;;;;;;;52.97;23.88;;;10.90;99.90;;;;;;5053714;28;20124;-91
2021/12/13 01:22:25;;;;;;;56.25;26.88;;;10.90;99.90;;;;;;5045427;28;20118;-90
2021/12/13 01:27:42;;;;;;;51.03;21.88;;;10.90;99.90;;;;;;5053329;28;20058;-91
2021/12/13 01:30:20;;;;;;;50.78;24.02;;;10.90;99.90;;;;;;5037293;28;20410;-91
2021/12/13 01:32:50;;;;;;;46.13;22.50;;;10.90;99.90;;;;;;5037497;28;20044;-91
2021/12/13 01:35:20;;;;;;;45.65;23.02;;;10.90;99.90;;;;;;5052494;28;20075;-91
2021/12/13 01:37:51;;;;;;;42.25;21.75;;;10.90;99.90;;;;;;5053588;28;20052;-91
2021/12/13 01:40:19;;;;;;;45.58;21.50;;;10.90;99.90;;;;;;5037282;28;20037;-91
2021/12/13 01:42:44;;;;;;;45.03;22.20;;;10.90;99.90;;;;;;5053089;28;20119;-91
2021/12/13 01:45:14;;;;;;;46.50;20.60;;;11.00;99.90;;;;;;5053245;28;20167;-91
2021/12/13 01:47:46;;;;;;;38.58;21.17;;;10.90;99.90;;;;;;5036836;28;20043;-91
2021/12/13 01:50:21;;;;;;;39.45;19.77;;;10.90;99.90;;;;;;5053469;28;20528;-91
2021/12/13 01:52:51;;;;;;;39.75;19.85;;;10.90;99.90;;;;;;5037194;28;20047;-91
2021/12/13 01:55:26;;;;;;;44.75;22.05;;;10.90;99.90;;;;;;5036821;28;20501;-91
2021/12/13 01:58:26;;;;;;;37.55;20.05;;;10.90;99.90;;;;;;5070087;28;20044;-91
2021/12/13 02:01:12;;;;;;;37.60;19.00;;;10.90;99.90;;;;;;5036887;28;20035;-91
2021/12/13 02:03:44;;;;;;;34.88;18.95;;;10.90;99.90;;;;;;5052554;28;20044;-91
2021/12/13 02:06:12;;;;;;;34.92;18.52;;;10.90;99.90;;;;;;5036327;28;20568;-91
2021/12/13 02:08:38;;;;;;;34.70;19.25;;;10.90;99.90;;;;;;5052992;28;20516;-91
2021/12/13 02:11:05;;;;;;;36.88;19.42;;;11.00;99.90;;;;;;5071392;28;20076;-91
2021/12/13 02:13:38;;;;;;;32.35;17.58;;;11.00;99.90;;;;;;5052051;28;20075;-91
2021/12/13 02:18:54;;;;;;;34.88;18.27;;;11.00;99.90;;;;;;5052440;28;20045;-91
2021/12/13 02:21:29;;;;;;;31.67;19.52;;;11.00;99.90;;;;;;5053402;28;20040;-91
2021/12/13 02:23:59;;;;;;;33.42;18.38;;;11.00;99.90;;;;;;5035759;28;20079;-91
2021/12/13 02:26:27;;;;;;;34.78;17.15;;;11.00;99.90;;;;;;5052838;28;20036;-92
2021/12/13 02:29:05;;;;;;;29.83;18.25;;;10.90;99.90;;;;;;5036631;28;20064;-92
2021/12/13 02:31:36;;;;;;;29.77;18.15;;;11.00;99.90;;;;;;5036612;28;20036;-92
2021/12/13 02:34:06;;;;;;;32.20;17.08;;;10.90;99.90;;;;;;5060724;28;20512;-92
2021/12/13 02:36:48;;;;;;;30.67;18.38;;;11.00;99.90;;;;;;5046322;28;20040;-92
2021/12/13 02:39:35;;;;;;;31.08;16.08;;;11.00;99.90;;;;;;5076565;28;20396;-92
2021/12/13 02:42:04;;;;;;;29.85;19.33;;;11.00;99.90;;;;;;5075993;28;20059;-92
2021/12/13 02:44:39;;;;;;;26.92;17.23;;;10.90;99.90;;;;;;5074548;28;20087;-91
2021/12/13 02:47:17;;;;;;;28.38;17.17;;;11.00;99.90;;;;;;5073181;28;20412;-92
2021/12/13 02:49:43;;;;;;;27.13;16.42;;;11.00;99.90;;;;;;5055520;28;20496;-92
2021/12/13 02:52:13;;;;;;;32.22;18.80;;;11.00;99.90;;;;;;5073192;28;20044;-92
2021/12/13 02:54:45;;;;;;;30.92;17.65;;;11.00;99.90;;;;;;5072827;28;20062;-92
2021/12/13 02:57:16;;;;;;;27.48;15.27;;;11.00;99.90;;;;;;5072408;28;20047;-92
2021/12/13 02:59:49;;;;;;;29.58;16.95;;;11.00;99.90;;;;;;5072870;28;20567;-92
2021/12/13 03:02:18;;;;;;;24.15;16.52;;;11.00;99.90;;;;;;5055399;28;20043;-92
2021/12/13 03:04:44;;;;;;;26.13;16.30;;;10.90;99.90;;;;;;5061782;28;20115;-92
2021/12/13 03:07:36;;;;;;;27.23;17.55;;;11.00;99.90;;;;;;5052631;28;20504;-92
2021/12/13 03:10:10;;;;;;;25.73;15.23;;;11.00;99.90;;;;;;5055155;28;20139;-92
2021/12/13 03:12:35;;;;;;;23.58;15.13;;;11.00;99.90;;;;;;5056503;28;20075;-92
2021/12/13 03:15:06;;;;;;;24.17;14.57;;;10.90;99.90;;;;;;5055980;28;20067;-92
2021/12/13 03:17:54;;;;;;;24.65;15.05;;;10.90;99.90;;;;;;5074055;28;20158;-91
2021/12/13 03:20:39;;;;;;;22.98;15.27;;;10.90;99.90;;;;;;5039633;28;20049;-92
2021/12/13 03:23:37;;;;;;;20.30;13.50;;;10.90;99.90;;;;;;5056396;28;20401;-92
2021/12/13 03:26:08;;;;;;;23.58;12.02;;;10.90;99.90;;;;;;4968525;28;20134;-91
2021/12/13 03:28:52;;;;;;;25.65;13.95;;;10.90;99.90;;;;;;5039917;28;20036;-92
2021/12/13 03:31:25;;;;;;;17.05;11.15;;;10.90;99.90;;;;;;5056139;28;20674;-92
2021/12/13 03:34:14;;;;;;;17.88;10.38;;;10.80;99.90;;;;;;5055960;28;20041;-92
2021/12/13 03:36:52;;;;;;;16.73;10.65;;;10.80;99.90;;;;;;5055569;28;20510;-92
2021/12/13 03:39:26;;;;;;;18.83;9.85;;;10.80;99.90;;;;;;5055837;28;20041;-92
2021/12/13 03:41:54;;;;;;;20.27;10.15;;;10.80;99.90;;;;;;5056762;28;20032;-92
2021/12/13 03:44:27;;;;;;;16.83;8.98;;;10.80;99.90;;;;;;5057124;28;20119;-92
2021/12/13 03:46:58;;;;;;;17.00;8.63;;;10.80;99.90;;;;;;5063196;28;20040;-92
2021/12/13 03:49:25;;;;;;;16.08;9.43;;;10.80;99.90;;;;;;5063752;28;20498;-92
2021/12/13 03:51:55;;;;;;;15.32;8.13;;;10.70;99.90;;;;;;5055387;28;20079;-91
2021/12/13 03:54:21;;;;;;;17.40;8.93;;;10.70;99.90;;;;;;5038960;28;20036;-91
2021/12/13 03:56:49;;;;;;;17.30;9.38;;;10.70;99.90;;;;;;5073832;28;20037;-92
2021/12/13 03:59:22;;;;;;;16.23;8.32;;;10.60;99.90;;;;;;5055532;28;20115;-91
2021/12/13 04:01:50;;;;;;;;;;;10.60;99.90;;;;;;5039366;28;20115;-91
2021/12/13 04:04:23;;;;;;;17.02;8.25;;;10.60;99.90;;;;;;5054390;28;20404;-92
2021/12/13 04:06:53;;;;;;;17.75;8.50;;;10.50;99.90;;;;;;5055839;28;20127;-91
2021/12/13 04:09:21;;;;;;;16.70;8.55;;;10.50;99.90;;;;;;5073303;28;20044;-91
2021/12/13 04:11:51;;;;;;;17.48;8.63;;;10.40;99.90;;;;;;5055414;28;20060;-91
2021/12/13 04:14:26;;;;;;;13.82;8.57;;;10.40;99.90;;;;;;5038702;28;20123;-91
2021/12/13 04:17:34;;;;;;;16.00;7.57;;;10.40;99.90;;;;;;5038876;28;20177;-90
2021/12/13 04:20:01;;;;;;;15.23;8.13;;;10.40;99.90;;;;;;5037376;28;20044;-91
2021/12/13 04:22:31;;;;;;;13.80;7.40;;;10.40;99.90;;;;;;5038621;28;20782;-91
2021/12/13 04:25:08;;;;;;;15.48;7.75;;;10.30;99.90;;;;;;5055083;28;20041;-90
2021/12/13 04:27:44;;;;;;;15.13;8.38;;;10.30;99.90;;;;;;5054938;28;20131;-91
2021/12/13 04:30:13;;;;;;;14.65;7.97;;;10.30;99.90;;;;;;5038952;28;20299;-91
2021/12/13 04:32:45;;;;;;;15.45;8.13;;;10.30;99.90;;;;;;5054893;28;20041;-90
2021/12/13 04:35:12;;;;;;;14.43;7.63;;;10.30;99.90;;;;;;5037744;28;20036;-91
2021/12/13 04:37:43;;;;;;;15.30;8.15;;;10.20;99.90;;;;;;5054759;28;20052;-91
2021/12/13 04:40:23;;;;;;;13.63;7.63;;;10.20;99.90;;;;;;5072502;28;20644;-91
2021/12/13 04:42:54;;;;;;;13.52;7.68;;;10.20;99.90;;;;;;5054845;28;20043;-92
2021/12/13 04:45:23;;;;;;;14.35;7.88;;;10.20;99.90;;;;;;5054796;28;20047;-91
2021/12/13 04:48:10;;;;;;;14.77;7.82;;;10.20;99.90;;;;;;5054377;28;20493;-91
2021/12/13 04:50:57;;;;;;;14.23;7.10;;;10.30;99.90;;;;;;5054946;28;20124;-91
2021/12/13 04:53:27;;;;;;;13.25;7.53;;;10.20;99.90;;;;;;5037595;28;20036;-91
2021/12/13 04:55:55;;;;;;;14.20;8.02;;;10.20;99.90;;;;;;5045443;28;20079;-91
2021/12/13 04:58:22;;;;;;;13.68;7.55;;;10.20;99.90;;;;;;5057684;28;20048;-91
2021/12/13 05:00:52;;;;;;;18.80;8.80;;;10.20;99.90;;;;;;5058075;28;20036;-91
2021/12/13 05:03:20;;;;;;;18.42;8.82;;;10.20;99.90;;;;;;5074689;28;20032;-91
2021/12/13 05:05:47;;;;;;;14.32;8.38;;;10.20;99.90;;;;;;5057028;28;20180;-92
2021/12/13 05:08:16;;;;;;;16.08;9.05;;;10.20;99.90;;;;;;5057957;28;20035;-91
2021/12/13 05:10:47;;;;;;;18.88;9.32;;;10.20;99.90;;;;;;5057993;28;20056;-91
2021/12/13 05:13:21;;;;;;;20.30;9.85;;;10.20;99.90;;;;;;5074334;28;20044;-91
2021/12/13 05:16:01;;;;;;;17.63;9.57;;;10.20;99.90;;;;;;5074157;28;20076;-91
2021/12/13 05:18:31;;;;;;;15.55;9.20;;;10.20;99.90;;;;;;5073887;28;20200;-91
2021/12/13 05:21:05;;;;;;;16.73;9.80;;;10.20;99.90;;;;;;5074092;28;20553;-91
2021/12/13 05:23:32;;;;;;;17.20;9.48;;;10.20;99.90;;;;;;5074128;28;20085;-91
2021/12/13 05:26:03;;;;;;;18.90;10.07;;;10.20;99.90;;;;;;5057614;28;20054;-91
2021/12/13 05:28:39;;;;;;;19.13;9.75;;;10.20;99.90;;;;;;5073848;28;20039;-91
2021/12/13 05:31:10;;;;;;;20.85;10.45;;;10.20;99.90;;;;;;5071498;28;20519;-91
2021/12/13 05:33:41;;;;;;;20.63;10.10;;;10.20;99.90;;;;;;5073762;28;20510;-91
2021/12/13 05:36:17;;;;;;;19.90;10.98;;;10.20;99.90;;;;;;5057004;28;20047;-91
2021/12/13 05:38:46;;;;;;;19.13;11.30;;;10.10;99.90;;;;;;5056383;28;20492;-91
2021/12/13 05:41:19;;;;;;;18.80;10.05;;;10.10;99.90;;;;;;5057300;28;20032;-91
2021/12/13 05:43:52;;;;;;;17.55;11.25;;;10.20;99.90;;;;;;5056551;28;20047;-91
2021/12/13 05:46:25;;;;;;;20.60;11.07;;;10.10;99.90;;;;;;5073342;28;20044;-91
2021/12/13 05:48:54;;;;;;;19.95;11.27;;;10.10;99.90;;;;;;5073666;28;20054;-91
2021/12/13 05:51:42;;;;;;;20.17;11.95;;;10.10;99.90;;;;;;5057094;28;20123;-91
2021/12/13 05:54:12;;;;;;;21.58;11.45;;;10.10;99.90;;;;;;5056193;28;20066;-92
2021/12/13 05:57:13;;;;;;;20.55;12.48;;;10.10;99.90;;;;;;5057121;28;20047;-91
2021/12/13 06:00:00;;;;;;;21.90;13.45;;;10.10;99.90;;;;;;5045489;28;20048;-90
2021/12/13 06:03:03;;;;;;;23.63;13.63;;;10.10;99.90;;;;;;5073368;28;20032;-91
2021/12/13 06:05:39;;;;;;;22.35;13.90;;;10.10;99.90;;;;;;5055569;28;20504;-91
2021/12/13 06:08:14;;;;;;;26.70;14.73;;;10.10;99.90;;;;;;5056585;28;20079;-91
2021/12/13 06:10:50;;;;;;;24.88;13.85;;;10.10;99.90;;;;;;5073458;28;20048;-91
2021/12/13 06:13:44;;;;;;;23.85;15.00;;;10.10;99.90;;;;;;5073642;28;20039;-90
2021/12/13 06:16:37;;;;;;;28.33;17.25;;;10.10;99.90;;;;;;5091930;28;20122;-90
2021/12/13 06:19:31;;;;;;;27.80;13.80;;;10.10;99.90;;;;;;5079855;28;20066;-90
2021/12/13 06:22:14;;;;;;;26.73;17.10;;;10.00;99.90;;;;;;5076159;28;20052;-90
2021/12/13 06:24:51;;;;;;;26.10;15.52;;;10.00;99.90;;;;;;5056322;28;20119;-90
2021/12/13 06:27:23;;;;;;;30.52;19.05;;;10.00;99.90;;;;;;5072727;28;20055;-90
2021/12/13 06:30:04;;;;;;;32.15;16.42;;;10.00;99.90;;;;;;5073098;28;20075;-91
2021/12/13 06:32:53;;;;;;;31.10;18.65;;;10.10;99.90;;;;;;5072833;28;20075;-90
2021/12/13 06:35:34;;;;;;;30.17;18.25;;;10.10;99.90;;;;;;5055355;28;20050;-91
2021/12/13 06:38:19;;;;;;;31.45;19.75;;;10.10;99.90;;;;;;5072545;28;20127;-91
2021/12/13 06:41:05;;;;;;;29.27;17.55;;;10.10;99.90;;;;;;5056447;28;20032;-91
2021/12/13 06:43:57;;;;;;;32.60;18.90;;;10.10;99.90;;;;;;5057914;28;20047;-91
2021/12/13 06:46:22;;;;;;;32.67;19.83;;;10.10;99.90;;;;;;5079131;28;20046;-92
2021/12/13 06:48:54;;;;;;;34.63;20.52;;;10.00;99.90;;;;;;5062895;28;20044;-91
2021/12/13 06:51:35;;;;;;;33.45;19.35;;;10.00;99.90;;;;;;5079938;28;20047;-91
2021/12/13 06:54:06;;;;;;;33.63;18.85;;;10.00;99.90;;;;;;5079303;28;20118;-91
2021/12/13 06:56:35;;;;;;;32.95;20.30;;;10.10;99.90;;;;;;5097927;28;20032;-91
2021/12/13 06:59:04;;;;;;;32.22;20.52;;;10.00;99.90;;;;;;5062647;28;20702;-91
2021/12/13 07:01:38;;;;;;;34.47;21.45;;;10.00;99.90;;;;;;5062582;28;20040;-91
2021/12/13 07:04:09;;;;;;;31.83;19.13;;;10.10;99.90;;;;;;5096352;28;20044;-91
2021/12/13 07:06:35;;;;;;;35.65;21.92;;;10.00;99.90;;;;;;5062756;28;20089;-91
2021/12/13 07:09:12;;;;;;;34.90;21.63;;;10.00;99.90;;;;;;5079976;28;20461;-90
2021/12/13 07:11:43;;;;;;;33.45;20.85;;;10.10;99.90;;;;;;5079691;28;20124;-91
2021/12/13 07:14:13;;;;;;;33.88;20.50;;;10.00;99.90;;;;;;5079275;28;20039;-91
2021/12/13 07:16:42;;;;;;;37.33;22.52;;;10.00;99.90;;;;;;5062602;28;20076;-91
2021/12/13 07:19:18;;;;;;;36.05;22.88;;;10.10;99.90;;;;;;5079311;28;20043;-90
2021/12/13 07:22:00;;;;;;;34.67;20.48;;;10.10;99.90;;;;;;5079441;28;20044;-91
2021/12/13 07:24:42;;;;;;;31.20;19.23;;;10.10;99.90;;;;;;5079286;28;20507;-91
2021/12/13 07:27:14;;;;;;;34.42;19.10;;;10.00;99.90;;;;;;5079190;28;20058;-91
2021/12/13 07:29:55;;;;;;;32.40;20.70;;;10.10;99.90;;;;;;5079226;28;20120;-90
2021/12/13 07:32:37;;;;;;;35.75;21.98;;;10.10;99.90;;;;;;5079031;28;20506;-91
2021/12/13 07:35:11;;;;;;;35.63;20.13;;;10.10;99.90;;;;;;5078790;28;20527;-91
2021/12/13 07:37:47;;;;;;;33.90;21.48;;;10.10;99.90;;;;;;5062560;28;20508;-91
2021/12/13 07:40:27;;;;;;;33.75;21.90;;;10.10;99.90;;;;;;5079410;28;20047;-91
2021/12/13 07:43:27;;;;;;;33.95;21.88;;;10.10;99.90;;;;;;5079185;28;20180;-92
2021/12/13 07:46:10;;;;;;;31.80;21.75;;;10.10;99.90;;;;;;5062594;28;20550;-91
2021/12/13 07:48:56;;;;;;;31.92;19.15;;;10.10;99.90;;;;;;5079535;28;20597;-90
2021/12/13 07:51:48;;;;;;;32.53;20.17;;;10.10;99.90;;;;;;5062062;28;20048;-91
2021/12/13 07:54:17;;;;;;;30.35;21.40;;;10.00;99.90;;;;;;5061152;28;20284;-91
2021/12/13 07:56:53;;;;;;;32.47;20.38;;;10.00;99.90;;;;;;5075608;28;20442;-91
2021/12/13 07:59:21;;;;;;;35.97;23.23;;;10.10;99.90;;;;;;5059101;28;20400;-90
2021/12/13 08:02:09;;;;;;;33.95;22.65;;;10.00;99.90;;;;;;5040783;28;20094;-89
2021/12/13 08:04:41;;;;;;;33.70;22.00;;;10.00;99.90;;;;;;5055975;28;20039;-91
2021/12/13 08:07:17;;;;;;;31.95;21.85;;;10.00;99.90;;;;;;5093033;28;20040;-90
2021/12/13 08:09:50;;;;;;;34.72;21.52;;;10.00;99.90;;;;;;5058463;28;20089;-90
2021/12/13 08:12:20;;;;;;;32.67;22.88;;;10.00;99.90;;;;;;5074178;28;20418;-91
2021/12/13 08:14:49;;;;;;;32.95;20.65;;;10.00;99.90;;;;;;5058163;28;20075;-90
2021/12/13 08:17:22;;;;;;;30.67;19.92;;;10.00;99.90;;;;;;5075081;28;20079;-90
2021/12/13 08:20:04;;;;;;;33.03;21.60;;;10.00;99.90;;;;;;5078137;28;20069;-92
2021/12/13 08:22:31;;;;;;;32.13;22.58;;;10.00;99.90;;;;;;5069280;28;20032;-89
2021/12/13 08:25:06;;;;;;;33.40;21.35;;;10.00;99.90;;;;;;5082455;28;20040;-89
2021/12/13 08:27:36;;;;;;;31.35;20.92;;;10.00;99.90;;;;;;5059693;28;20050;-90
2021/12/13 08:30:16;;;;;;;34.13;20.02;;;10.00;99.90;;;;;;5060065;28;20080;-91
2021/12/13 08:33:06;;;;;;;29.33;19.10;;;10.00;99.90;;;;;;5059363;28;20036;-90
2021/12/13 08:35:46;;;;;;;33.10;19.70;;;10.00;99.90;;;;;;5074852;28;20074;-91
2021/12/13 08:38:31;;;;;;;32.60;20.60;;;10.00;99.90;;;;;;5058427;28;20076;-91
2021/12/13 08:41:00;;;;;;;33.33;19.75;;;10.00;99.90;;;;;;5074404;28;20101;-91
2021/12/13 08:43:46;;;;;;;30.88;18.40;;;10.00;99.90;;;;;;5058127;28;20079;-91
2021/12/13 08:46:22;;;;;;;31.13;19.10;;;10.00;99.90;;;;;;5075474;28;20028;-90
2021/12/13 08:48:50;;;;;;;30.67;19.30;;;10.00;99.90;;;;;;5084810;28;20283;-91
2021/12/13 08:51:23;;;;;;;29.77;19.35;;;10.00;99.90;;;;;;5077587;28;20040;-91
2021/12/13 08:54:06;;;;;;;28.50;17.95;;;10.00;99.90;;;;;;5073924;28;20424;-90
2021/12/13 08:56:40;;;;;;;29.35;17.20;;;10.00;99.90;;;;;;5057945;28;20119;-90
2021/12/13 08:59:12;;;;;;;29.08;17.00;;;10.00;99.90;;;;;;5057073;28;20049;-91
2021/12/13 09:01:47;;;;;;;30.60;16.83;;;10.00;99.90;;;;;;5054242;28;20143;-90
2021/12/13 09:04:22;;;;;;;31.90;19.20;;;10.00;99.90;;;;;;5056351;28;20118;-90
2021/12/13 09:06:53;;;;;;;26.25;17.58;;;10.00;99.90;;;;;;5056926;28;20040;-89
2021/12/13 09:09:20;;;;;;;29.90;17.88;;;10.00;99.90;;;;;;5073801;28;20526;-90
2021/12/13 09:12:02;;;;;;;31.08;19.63;;;10.00;99.90;;;;;;5074291;28;20044;-90
2021/12/13 09:14:35;;;;;;;28.10;16.45;;;10.00;99.90;;;;;;5072902;28;20039;-90
2021/12/13 09:17:07;;;;;;;28.85;19.20;;;10.00;99.90;;;;;;5091569;28;20468;-90
2021/12/13 09:19:47;;;;;;;29.95;20.23;;;10.00;99.90;;;;;;5073286;28;20123;-90
2021/12/13 09:22:24;;;;;;;28.50;17.92;;;10.00;99.90;;;;;;5092007;28;20032;-90
2021/12/13 09:25:00;;;;;;;28.48;17.40;;;10.00;99.90;;;;;;5056809;28;20040;-90
2021/12/13 09:27:34;;;;;;;31.40;17.77;;;10.10;99.90;;;;;;5056552;28;20039;-90
2021/12/13 09:30:12;;;;;;;28.70;17.88;;;10.00;99.90;;;;;;5073166;28;20097;-90
2021/12/13 09:32:41;;;;;;;27.63;17.15;;;10.10;99.90;;;;;;5056705;28;20149;-91
2021/12/13 09:35:49;;;;;;;28.20;17.50;;;10.10;99.90;;;;;;5056036;28;20562;-92
2021/12/13 09:38:18;;;;;;;26.83;17.52;;;10.10;99.90;;;;;;5042046;28;20605;-90
2021/12/13 09:41:03;;;;;;;28.33;17.58;;;10.10;99.90;;;;;;5073174;28;20043;-90
2021/12/13 09:43:43;;;;;;;25.90;16.17;;;10.10;99.90;;;;;;5056518;28;20126;-90
2021/12/13 09:46:12;;;;;;;25.65;16.33;;;10.10;99.90;;;;;;5073288;28;20044;-90
2021/12/13 09:48:46;;;;;;;28.70;16.63;;;10.10;99.90;;;;;;5073563;28;20036;-91
2021/12/13 09:51:24;;;;;;;26.38;16.58;;;10.10;99.90;;;;;;5054529;28;20040;-90
2021/12/13 09:53:55;;;;;;;27.23;16.25;;;10.10;99.90;;;;;;5052547;28;20036;-91
2021/12/13 09:56:24;;;;;;;28.42;15.60;;;10.10;99.90;;;;;;5052361;28;20075;-91
2021/12/13 09:58:56;;;;;;;30.98;16.92;;;10.10;99.90;;;;;;5036170;28;20051;-91
2021/12/13 10:01:32;;;;;;;26.65;15.73;;;10.10;99.90;;;;;;5053343;28;20124;-91
2021/12/13 10:04:03;;;;;;;25.80;15.10;;;10.10;99.90;;;;;;5038577;28;20083;-90
2021/12/13 10:06:45;;;;;;;26.35;16.42;;;10.10;99.90;;;;;;5056466;28;20035;-90
2021/12/13 10:09:25;;;;;;;25.65;16.48;;;10.10;99.90;;;;;;5072619;28;20051;-90
2021/12/13 10:11:54;;;;;;;24.95;15.40;;;10.10;99.90;;;;;;5055722;28;20040;-91
2021/12/13 10:14:26;;;;;;;31.15;16.65;;;10.10;99.90;;;;;;5055533;28;20089;-91
2021/12/13 10:16:55;;;;;;;25.70;16.15;;;10.10;99.90;;;;;;5072534;28;20036;-91
2021/12/13 10:19:29;;;;;;;27.48;15.65;;;10.20;99.90;;;;;;5071583;28;20124;-90
2021/12/13 10:21:58;;;;;;;28.23;15.27;;;10.10;99.90;;;;;;5056605;28;20050;-90
2021/12/13 10:24:40;;;;;;;24.50;15.07;;;10.10;99.90;;;;;;5055699;28;20081;-90
2021/12/13 10:27:08;;;;;;;27.70;14.55;;;10.10;99.90;;;;;;5036652;28;20040;-91
2021/12/13 10:29:35;;;;;;;24.50;14.50;;;10.10;99.90;;;;;;5044644;28;20036;-91
2021/12/13 10:32:06;;;;;;;25.95;14.75;;;10.20;99.90;;;;;;5024722;28;20482;-90
2021/12/13 10:34:40;;;;;;;21.48;14.07;;;10.10;99.90;;;;;;5039741;28;20120;-91
2021/12/13 10:37:10;;;;;;;28.20;14.82;;;10.20;99.90;;;;;;5034765;28;20029;-90
2021/12/13 10:39:42;;;;;;;23.67;14.63;;;10.20;99.90;;;;;;5015119;28;20060;-91
2021/12/13 10:42:14;;;;;;;22.95;14.70;;;10.20;99.90;;;;;;5016526;28;20467;-91
2021/12/13 10:44:44;;;;;;;22.63;13.32;;;10.20;99.90;;;;;;5015920;28;20075;-91
2021/12/13 10:47:17;;;;;;;25.27;14.35;;;10.20;99.90;;;;;;5016472;28;20402;-91
2021/12/13 10:49:46;;;;;;;23.95;13.77;;;10.20;99.90;;;;;;5031177;28;20039;-90
2021/12/13 10:52:35;;;;;;;23.92;14.85;;;10.20;99.90;;;;;;5033412;28;20111;-90
2021/12/13 10:55:12;;;;;;;25.20;14.32;;;10.20;99.90;;;;;;5031783;28;20041;-90
2021/12/13 10:57:44;;;;;;;20.75;13.43;;;10.20;99.90;;;;;;5031922;28;20099;-90
2021/12/13 11:00:21;;;;;;;22.50;13.23;;;10.20;99.90;;;;;;5026510;28;20032;-92
2021/12/13 11:03:00;;;;;;;22.08;13.50;;;10.20;99.90;;;;;;5070520;28;20385;-91
2021/12/13 11:05:28;;;;;;;22.75;13.35;;;10.20;99.90;;;;;;5062133;28;20067;-91
2021/12/13 11:07:55;;;;;;;21.50;13.05;;;10.20;99.90;;;;;;5042222;28;20442;-90
2021/12/13 11:10:25;;;;;;;23.60;14.00;;;10.20;99.90;;;;;;5027719;28;20053;-91
2021/12/13 11:12:54;;;;;;;24.15;13.88;;;10.20;99.90;;;;;;5042559;28;20067;-91
2021/12/13 11:15:26;;;;;;;23.58;13.90;;;10.20;99.90;;;;;;5046986;28;20055;-91
2021/12/13 11:17:54;;;;;;;21.00;11.63;;;10.20;99.90;;;;;;5046680;28;20091;-91
2021/12/13 11:20:33;;;;;;;20.75;13.35;;;10.20;99.90;;;;;;5068303;28;20048;-90
2021/12/13 11:22:59;;;;;;;22.13;12.98;;;10.20;99.90;;;;;;5040083;28;20041;-90
2021/12/13 11:25:41;;;;;;;22.60;12.30;;;10.20;99.90;;;;;;5024187;28;20037;-90
2021/12/13 11:28:09;;;;;;;21.60;13.45;;;10.20;99.90;;;;;;5032951;28;20029;-90
2021/12/13 11:30:38;;;;;;;22.95;13.27;;;10.20;99.90;;;;;;5029197;28;20109;-91
2021/12/13 11:33:10;;;;;;;22.15;13.43;;;10.20;99.90;;;;;;5044507;28;20040;-91
2021/12/13 11:36:08;;;;;;;19.10;11.27;;;10.20;99.90;;;;;;5034988;28;20072;-90
2021/12/13 11:39:04;;;;;;;21.65;12.95;;;10.20;99.90;;;;;;5018841;28;20056;-90
2021/12/13 11:42:04;;;;;;;19.67;12.30;;;10.30;99.90;;;;;;5069646;28;20052;-91
2021/12/13 11:45:02;;;;;;;20.38;12.73;;;10.20;99.90;;;;;;5055700;28;20052;-91
2021/12/13 11:47:40;;;;;;;23.45;13.45;;;10.30;99.90;;;;;;5038644;28;20056;-90
2021/12/13 11:50:15;;;;;;;21.40;12.05;;;10.30;99.90;;;;;;5038842;28;20442;-90
2021/12/13 11:53:18;;;;;;;22.48;12.45;;;10.30;99.90;;;;;;5054830;28;20040;-91
2021/12/13 11:55:59;;;;;;;23.10;12.30;;;10.30;99.90;;;;;;5038306;28;20099;-91
2021/12/13 11:59:01;;;;;;;24.13;13.18;;;10.30;99.90;;;;;;5055550;28;20127;-91
2021/12/13 12:01:47;;;;;;;23.63;12.98;;;10.30;99.90;;;;;;5038673;28;20121;-91
2021/12/13 12:04:50;;;;;;;23.67;13.10;;;10.30;99.90;;;;;;5061260;28;20047;-91
2021/12/13 12:07:54;;;;;;;21.75;11.88;;;10.30;99.90;;;;;;5058929;28;20040;-91
2021/12/13 12:10:56;;;;;;;22.00;12.95;;;10.30;99.90;;;;;;5075424;28;20032;-91
2021/12/13 12:13:53;;;;;;;20.70;12.60;;;10.30;99.90;;;;;;5075133;28;20040;-90
2021/12/13 12:16:24;;;;;;;20.10;12.77;;;10.30;99.90;;;;;;5074689;28;20393;-91
2021/12/13 12:18:51;;;;;;;20.40;12.55;;;10.30;99.90;;;;;;5075084;28;20503;-91
2021/12/13 12:21:38;;;;;;;20.95;12.93;;;10.20;99.90;;;;;;5058403;28;20119;-90
2021/12/13 12:24:29;;;;;;;22.95;12.85;;;10.30;99.90;;;;;;5049241;28;20028;-90
2021/12/13 12:27:02;;;;;;;21.60;12.93;;;10.30;99.90;;;;;;5054041;28;20041;-90
2021/12/13 12:29:33;;;;;;;20.13;12.57;;;10.30;99.90;;;;;;5038539;28;20041;-90
2021/12/13 12:32:04;;;;;;;23.80;13.20;;;10.30;99.90;;;;;;5042224;28;20104;-91
2021/12/13 12:34:31;;;;;;;20.27;12.63;;;10.30;99.90;;;;;;5043491;28;20032;-90
2021/12/13 12:36:57;;;;;;;21.00;12.25;;;10.30;99.90;;;;;;5062227;28;20040;-91
2021/12/13 12:39:38;;;;;;;23.73;12.95;;;10.30;99.90;;;;;;5054355;28;20137;-91
2021/12/13 12:42:30;;;;;;;22.73;12.70;;;10.30;99.90;;;;;;5053982;28;20040;-92
2021/12/13 12:44:55;;;;;;;23.27;12.60;;;10.30;99.90;;;;;;5062064;28;20501;-92
2021/12/13 12:47:36;;;;;;;21.45;12.93;;;10.30;99.90;;;;;;5027444;28;20073;-91
2021/12/13 12:50:22;;;;;;;21.90;13.43;;;10.30;99.90;;;;;;5046096;28;20048;-91
2021/12/13 12:52:53;;;;;;;20.42;11.65;;;10.30;99.90;;;;;;5047082;28;20119;-91
2021/12/13 12:55:23;;;;;;;20.98;12.07;;;10.30;99.90;;;;;;5053025;28;20132;-91
2021/12/13 12:57:50;;;;;;;21.50;13.00;;;10.30;99.90;;;;;;5037565;28;20055;-91
2021/12/13 13:00:22;;;;;;;20.45;13.20;;;10.30;99.90;;;;;;5070627;28;20444;-91
2021/12/13 13:02:48;;;;;;;21.38;11.50;;;10.30;99.90;;;;;;5037890;28;20041;-92
2021/12/13 13:05:14;;;;;;;19.10;12.77;;;10.30;99.90;;;;;;5054710;28;20040;-91
2021/12/13 13:07:40;;;;;;;21.88;12.38;;;10.30;99.90;;;;;;5053963;28;20199;-92
2021/12/13 13:10:24;;;;;;;21.30;13.32;;;10.30;99.90;;;;;;5054347;28;20123;-90
2021/12/13 13:13:03;;;;;;;22.60;12.95;;;10.30;99.90;;;;;;5054262;28;20052;-91
2021/12/13 13:15:37;;;;;;;20.80;12.18;;;10.30;99.90;;;;;;5054018;28;20044;-91
2021/12/13 13:18:10;;;;;;;18.83;11.70;;;10.30;99.90;;;;;;5037065;28;20448;-91
2021/12/13 13:20:51;;;;;;;19.20;11.90;;;10.30;99.90;;;;;;5053576;28;20036;-91